sensor_id;sensor_type;location;lat;lon;timestamp;P1;durP1;ratioP1;P2;durP2;ratioP2
11665;SDS011;5889;51.350;6.708;2023-03-01T00:00:16;12.53;;;8.40;;
11665;SDS011;5889;51.350;6.708;2023-03-01T00:02:44;12.27;;;8.37;;
11665;SDS011;5889;51.350;6.708;2023-03-01T00:05:11;14.77;;;8.13;;
11665;SDS011;5889;51.350;6.708;2023-03-01T00:07:38;14.70;;;7.83;;
11665;SDS011;5889;51.350;6.708;2023-03-01T00:10:06;13.93;;;8.83;;
11665;SDS011;5889;51.350;6.708;2023-03-01T00:12:34;15.77;;;7.63;;
11665;SDS011;5889;51.350;6.708;2023-03-01T00:15:02;14.63;;;7.97;;
11665;SDS011;5889;51.350;6.708;2023-03-01T00:17:30;12.60;;;7.87;;
11665;SDS011;5889;51.350;6.708;2023-03-01T00:19:57;13.13;;;7.80;;
11665;SDS011;5889;51.350;6.708;2023-03-01T00:22:26;12.80;;;7.53;;
11665;SDS011;5889;51.350;6.708;2023-03-01T00:24:54;12.43;;;8.60;;
11665;SDS011;5889;51.350;6.708;2023-03-01T00:27:22;12.37;;;7.83;;
11665;SDS011;5889;51.350;6.708;2023-03-01T00:29:49;11.50;;;7.93;;
11665;SDS011;5889;51.350;6.708;2023-03-01T00:32:16;14.10;;;8.53;;
11665;SDS011;5889;51.350;6.708;2023-03-01T00:34:43;11.47;;;7.50;;
11665;SDS011;5889;51.350;6.708;2023-03-01T00:37:19;17.37;;;8.40;;
11665;SDS011;5889;51.350;6.708;2023-03-01T00:39:46;15.23;;;8.37;;
11665;SDS011;5889;51.350;6.708;2023-03-01T00:42:13;13.97;;;8.23;;
11665;SDS011;5889;51.350;6.708;2023-03-01T00:44:42;12.70;;;7.93;;
11665;SDS011;5889;51.350;6.708;2023-03-01T00:47:09;15.13;;;8.07;;
11665;SDS011;5889;51.350;6.708;2023-03-01T00:49:36;13.07;;;8.23;;
11665;SDS011;5889;51.350;6.708;2023-03-01T00:52:06;11.03;;;7.83;;
11665;SDS011;5889;51.350;6.708;2023-03-01T00:54:32;12.00;;;7.83;;
11665;SDS011;5889;51.350;6.708;2023-03-01T00:56:59;15.13;;;8.93;;
11665;SDS011;5889;51.350;6.708;2023-03-01T00:59:26;13.33;;;8.03;;
11665;SDS011;5889;51.350;6.708;2023-03-01T01:01:55;13.40;;;8.23;;
11665;SDS011;5889;51.350;6.708;2023-03-01T01:04:22;9.67;;;7.43;;
11665;SDS011;5889;51.350;6.708;2023-03-01T01:06:48;11.90;;;7.83;;
11665;SDS011;5889;51.350;6.708;2023-03-01T01:09:16;16.40;;;8.23;;
11665;SDS011;5889;51.350;6.708;2023-03-01T01:11:44;12.20;;;7.73;;
11665;SDS011;5889;51.350;6.708;2023-03-01T01:14:11;11.30;;;8.47;;
11665;SDS011;5889;51.350;6.708;2023-03-01T01:16:39;12.73;;;7.97;;
11665;SDS011;5889;51.350;6.708;2023-03-01T01:19:07;11.77;;;7.87;;
11665;SDS011;5889;51.350;6.708;2023-03-01T01:21:35;11.57;;;8.07;;
11665;SDS011;5889;51.350;6.708;2023-03-01T01:24:02;13.80;;;8.17;;
11665;SDS011;5889;51.350;6.708;2023-03-01T01:26:31;13.97;;;7.80;;
11665;SDS011;5889;51.350;6.708;2023-03-01T01:28:59;13.03;;;8.47;;
11665;SDS011;5889;51.350;6.708;2023-03-01T01:31:27;11.77;;;7.83;;
11665;SDS011;5889;51.350;6.708;2023-03-01T01:33:55;16.13;;;8.93;;
11665;SDS011;5889;51.350;6.708;2023-03-01T01:36:24;15.57;;;8.13;;
11665;SDS011;5889;51.350;6.708;2023-03-01T01:38:51;14.27;;;9.13;;
11665;SDS011;5889;51.350;6.708;2023-03-01T01:41:19;12.60;;;7.90;;
11665;SDS011;5889;51.350;6.708;2023-03-01T01:43:47;11.40;;;8.07;;
11665;SDS011;5889;51.350;6.708;2023-03-01T01:46:19;14.97;;;9.07;;
11665;SDS011;5889;51.350;6.708;2023-03-01T01:48:54;14.63;;;9.10;;
11665;SDS011;5889;51.350;6.708;2023-03-01T01:51:27;11.30;;;8.40;;
11665;SDS011;5889;51.350;6.708;2023-03-01T01:54:03;14.13;;;9.07;;
11665;SDS011;5889;51.350;6.708;2023-03-01T01:56:35;12.50;;;8.70;;
11665;SDS011;5889;51.350;6.708;2023-03-01T01:59:04;12.20;;;8.57;;
11665;SDS011;5889;51.350;6.708;2023-03-01T02:01:31;13.17;;;8.17;;
11665;SDS011;5889;51.350;6.708;2023-03-01T02:03:58;12.63;;;9.27;;
11665;SDS011;5889;51.350;6.708;2023-03-01T02:06:28;13.10;;;9.07;;
11665;SDS011;5889;51.350;6.708;2023-03-01T02:09:03;12.03;;;8.20;;
11665;SDS011;5889;51.350;6.708;2023-03-01T02:11:33;11.60;;;8.47;;
11665;SDS011;5889;51.350;6.708;2023-03-01T02:14:02;12.50;;;8.70;;
11665;SDS011;5889;51.350;6.708;2023-03-01T02:16:29;11.73;;;8.67;;
11665;SDS011;5889;51.350;6.708;2023-03-01T02:18:57;17.10;;;9.10;;
11665;SDS011;5889;51.350;6.708;2023-03-01T02:21:33;13.57;;;8.80;;
11665;SDS011;5889;51.350;6.708;2023-03-01T02:24:10;19.03;;;8.83;;
11665;SDS011;5889;51.350;6.708;2023-03-01T02:26:50;14.33;;;9.70;;
11665;SDS011;5889;51.350;6.708;2023-03-01T02:29:21;16.67;;;9.03;;
11665;SDS011;5889;51.350;6.708;2023-03-01T02:31:49;17.10;;;8.97;;
11665;SDS011;5889;51.350;6.708;2023-03-01T02:34:18;17.77;;;9.87;;
11665;SDS011;5889;51.350;6.708;2023-03-01T02:36:47;16.20;;;8.90;;
11665;SDS011;5889;51.350;6.708;2023-03-01T02:39:17;13.80;;;9.23;;
11665;SDS011;5889;51.350;6.708;2023-03-01T02:41:49;11.60;;;8.87;;
11665;SDS011;5889;51.350;6.708;2023-03-01T02:44:18;14.27;;;9.60;;
11665;SDS011;5889;51.350;6.708;2023-03-01T02:46:48;16.47;;;9.17;;
11665;SDS011;5889;51.350;6.708;2023-03-01T02:49:20;14.90;;;9.13;;
11665;SDS011;5889;51.350;6.708;2023-03-01T02:54:50;13.33;;;9.27;;
11665;SDS011;5889;51.350;6.708;2023-03-01T02:57:18;16.80;;;10.17;;
11665;SDS011;5889;51.350;6.708;2023-03-01T02:59:48;14.90;;;9.43;;
11665;SDS011;5889;51.350;6.708;2023-03-01T03:02:20;14.43;;;9.37;;
11665;SDS011;5889;51.350;6.708;2023-03-01T03:05:01;15.97;;;9.43;;
11665;SDS011;5889;51.350;6.708;2023-03-01T03:07:31;14.53;;;9.13;;
11665;SDS011;5889;51.350;6.708;2023-03-01T03:09:59;12.43;;;9.10;;
11665;SDS011;5889;51.350;6.708;2023-03-01T03:12:26;12.47;;;8.97;;
11665;SDS011;5889;51.350;6.708;2023-03-01T03:14:53;17.43;;;9.97;;
11665;SDS011;5889;51.350;6.708;2023-03-01T03:17:22;15.63;;;9.70;;
11665;SDS011;5889;51.350;6.708;2023-03-01T03:19:49;16.07;;;9.50;;
11665;SDS011;5889;51.350;6.708;2023-03-01T03:22:16;17.50;;;9.83;;
11665;SDS011;5889;51.350;6.708;2023-03-01T03:24:43;15.90;;;9.53;;
11665;SDS011;5889;51.350;6.708;2023-03-01T03:27:10;14.33;;;9.40;;
11665;SDS011;5889;51.350;6.708;2023-03-01T03:29:36;15.17;;;9.80;;
11665;SDS011;5889;51.350;6.708;2023-03-01T03:32:03;14.63;;;9.47;;
11665;SDS011;5889;51.350;6.708;2023-03-01T03:34:32;16.07;;;9.73;;
11665;SDS011;5889;51.350;6.708;2023-03-01T03:36:59;18.37;;;10.03;;
11665;SDS011;5889;51.350;6.708;2023-03-01T03:39:27;14.73;;;9.33;;
11665;SDS011;5889;51.350;6.708;2023-03-01T03:41:59;17.33;;;9.87;;
11665;SDS011;5889;51.350;6.708;2023-03-01T03:44:27;15.63;;;10.43;;
11665;SDS011;5889;51.350;6.708;2023-03-01T03:46:54;15.93;;;9.93;;
11665;SDS011;5889;51.350;6.708;2023-03-01T03:49:21;14.40;;;10.73;;
11665;SDS011;5889;51.350;6.708;2023-03-01T03:51:49;19.50;;;10.23;;
11665;SDS011;5889;51.350;6.708;2023-03-01T03:54:16;17.13;;;10.00;;
11665;SDS011;5889;51.350;6.708;2023-03-01T03:56:43;15.90;;;9.97;;
11665;SDS011;5889;51.350;6.708;2023-03-01T03:59:10;13.17;;;9.30;;
11665;SDS011;5889;51.350;6.708;2023-03-01T04:01:46;16.30;;;9.30;;
11665;SDS011;5889;51.350;6.708;2023-03-01T04:04:13;13.33;;;9.13;;
11665;SDS011;5889;51.350;6.708;2023-03-01T04:06:42;13.00;;;9.17;;
11665;SDS011;5889;51.350;6.708;2023-03-01T04:09:11;17.40;;;9.80;;
11665;SDS011;5889;51.350;6.708;2023-03-01T04:11:38;15.03;;;9.70;;
11665;SDS011;5889;51.350;6.708;2023-03-01T04:14:05;13.40;;;9.10;;
11665;SDS011;5889;51.350;6.708;2023-03-01T04:16:32;14.57;;;9.53;;
11665;SDS011;5889;51.350;6.708;2023-03-01T04:18:58;15.77;;;9.77;;
11665;SDS011;5889;51.350;6.708;2023-03-01T04:21:25;15.27;;;9.40;;
11665;SDS011;5889;51.350;6.708;2023-03-01T04:23:52;15.03;;;10.07;;
11665;SDS011;5889;51.350;6.708;2023-03-01T04:26:21;16.87;;;10.00;;
11665;SDS011;5889;51.350;6.708;2023-03-01T04:28:47;16.33;;;9.47;;
11665;SDS011;5889;51.350;6.708;2023-03-01T04:31:16;14.00;;;8.93;;
11665;SDS011;5889;51.350;6.708;2023-03-01T04:33:46;14.20;;;10.03;;
11665;SDS011;5889;51.350;6.708;2023-03-01T04:36:16;14.70;;;10.00;;
11665;SDS011;5889;51.350;6.708;2023-03-01T04:38:44;14.17;;;9.50;;
11665;SDS011;5889;51.350;6.708;2023-03-01T04:41:13;15.43;;;9.97;;
11665;SDS011;5889;51.350;6.708;2023-03-01T04:43:43;17.70;;;10.13;;
11665;SDS011;5889;51.350;6.708;2023-03-01T04:46:11;15.30;;;9.30;;
11665;SDS011;5889;51.350;6.708;2023-03-01T04:48:40;17.30;;;10.23;;
11665;SDS011;5889;51.350;6.708;2023-03-01T04:51:08;16.80;;;9.80;;
11665;SDS011;5889;51.350;6.708;2023-03-01T04:53:38;16.47;;;11.03;;
11665;SDS011;5889;51.350;6.708;2023-03-01T04:56:06;18.03;;;10.53;;
11665;SDS011;5889;51.350;6.708;2023-03-01T04:58:33;16.70;;;10.87;;
11665;SDS011;5889;51.350;6.708;2023-03-01T05:01:01;17.70;;;11.50;;
11665;SDS011;5889;51.350;6.708;2023-03-01T05:03:40;16.27;;;9.83;;
11665;SDS011;5889;51.350;6.708;2023-03-01T05:06:08;17.30;;;10.27;;
11665;SDS011;5889;51.350;6.708;2023-03-01T05:08:36;15.53;;;9.93;;
11665;SDS011;5889;51.350;6.708;2023-03-01T05:11:03;14.80;;;9.87;;
11665;SDS011;5889;51.350;6.708;2023-03-01T05:13:30;15.13;;;10.20;;
11665;SDS011;5889;51.350;6.708;2023-03-01T05:15:59;17.57;;;10.30;;
11665;SDS011;5889;51.350;6.708;2023-03-01T05:18:29;16.37;;;10.10;;
11665;SDS011;5889;51.350;6.708;2023-03-01T05:21:01;18.57;;;10.00;;
11665;SDS011;5889;51.350;6.708;2023-03-01T05:23:30;14.73;;;9.40;;
11665;SDS011;5889;51.350;6.708;2023-03-01T05:25:58;14.00;;;9.70;;
11665;SDS011;5889;51.350;6.708;2023-03-01T05:28:26;19.77;;;10.33;;
11665;SDS011;5889;51.350;6.708;2023-03-01T05:30:54;16.60;;;9.77;;
11665;SDS011;5889;51.350;6.708;2023-03-01T05:33:23;16.87;;;10.57;;
11665;SDS011;5889;51.350;6.708;2023-03-01T05:35:51;14.90;;;9.43;;
11665;SDS011;5889;51.350;6.708;2023-03-01T05:38:18;17.00;;;10.20;;
11665;SDS011;5889;51.350;6.708;2023-03-01T05:40:48;14.33;;;10.50;;
11665;SDS011;5889;51.350;6.708;2023-03-01T05:43:16;14.43;;;9.77;;
11665;SDS011;5889;51.350;6.708;2023-03-01T05:45:44;13.67;;;9.20;;
11665;SDS011;5889;51.350;6.708;2023-03-01T05:48:11;17.33;;;10.53;;
11665;SDS011;5889;51.350;6.708;2023-03-01T05:50:41;17.10;;;10.10;;
11665;SDS011;5889;51.350;6.708;2023-03-01T05:53:10;17.63;;;10.17;;
11665;SDS011;5889;51.350;6.708;2023-03-01T05:55:37;18.83;;;9.57;;
11665;SDS011;5889;51.350;6.708;2023-03-01T05:58:06;15.27;;;10.40;;
11665;SDS011;5889;51.350;6.708;2023-03-01T06:00:36;14.57;;;10.17;;
11665;SDS011;5889;51.350;6.708;2023-03-01T06:03:03;14.57;;;10.10;;
11665;SDS011;5889;51.350;6.708;2023-03-01T06:05:30;17.57;;;10.27;;
11665;SDS011;5889;51.350;6.708;2023-03-01T06:07:59;20.47;;;11.00;;
11665;SDS011;5889;51.350;6.708;2023-03-01T06:10:27;16.53;;;10.10;;
11665;SDS011;5889;51.350;6.708;2023-03-01T06:12:55;16.60;;;10.00;;
11665;SDS011;5889;51.350;6.708;2023-03-01T06:15:22;17.80;;;9.83;;
11665;SDS011;5889;51.350;6.708;2023-03-01T06:17:50;18.47;;;10.33;;
11665;SDS011;5889;51.350;6.708;2023-03-01T06:20:18;17.57;;;9.83;;
11665;SDS011;5889;51.350;6.708;2023-03-01T06:22:46;16.47;;;10.43;;
11665;SDS011;5889;51.350;6.708;2023-03-01T06:25:16;19.37;;;11.77;;
11665;SDS011;5889;51.350;6.708;2023-03-01T06:27:44;17.83;;;10.27;;
11665;SDS011;5889;51.350;6.708;2023-03-01T06:30:13;20.23;;;10.83;;
11665;SDS011;5889;51.350;6.708;2023-03-01T06:32:43;16.97;;;10.20;;
11665;SDS011;5889;51.350;6.708;2023-03-01T06:35:11;18.47;;;10.20;;
11665;SDS011;5889;51.350;6.708;2023-03-01T06:37:39;15.87;;;10.50;;
11665;SDS011;5889;51.350;6.708;2023-03-01T06:40:08;22.90;;;10.97;;
11665;SDS011;5889;51.350;6.708;2023-03-01T06:42:40;17.20;;;11.00;;
11665;SDS011;5889;51.350;6.708;2023-03-01T06:45:08;17.23;;;10.67;;
11665;SDS011;5889;51.350;6.708;2023-03-01T06:47:36;21.20;;;10.57;;
11665;SDS011;5889;51.350;6.708;2023-03-01T06:50:03;16.57;;;10.67;;
11665;SDS011;5889;51.350;6.708;2023-03-01T06:52:31;19.80;;;10.77;;
11665;SDS011;5889;51.350;6.708;2023-03-01T06:54:58;22.03;;;10.80;;
11665;SDS011;5889;51.350;6.708;2023-03-01T06:57:26;17.60;;;10.43;;
11665;SDS011;5889;51.350;6.708;2023-03-01T06:59:54;23.63;;;11.30;;
11665;SDS011;5889;51.350;6.708;2023-03-01T07:02:21;16.57;;;9.67;;
11665;SDS011;5889;51.350;6.708;2023-03-01T07:04:49;16.10;;;9.83;;
11665;SDS011;5889;51.350;6.708;2023-03-01T07:07:17;18.80;;;10.60;;
11665;SDS011;5889;51.350;6.708;2023-03-01T07:09:45;18.87;;;10.10;;
11665;SDS011;5889;51.350;6.708;2023-03-01T07:12:11;13.80;;;10.20;;
11665;SDS011;5889;51.350;6.708;2023-03-01T07:14:38;16.90;;;10.90;;
11665;SDS011;5889;51.350;6.708;2023-03-01T07:17:07;16.20;;;9.90;;
11665;SDS011;5889;51.350;6.708;2023-03-01T07:19:34;20.20;;;11.30;;
11665;SDS011;5889;51.350;6.708;2023-03-01T07:22:02;15.53;;;10.80;;
11665;SDS011;5889;51.350;6.708;2023-03-01T07:24:32;19.53;;;10.80;;
11665;SDS011;5889;51.350;6.708;2023-03-01T07:26:59;17.17;;;11.10;;
11665;SDS011;5889;51.350;6.708;2023-03-01T07:29:27;19.43;;;10.33;;
11665;SDS011;5889;51.350;6.708;2023-03-01T07:31:54;18.50;;;11.20;;
11665;SDS011;5889;51.350;6.708;2023-03-01T07:34:23;18.37;;;10.73;;
11665;SDS011;5889;51.350;6.708;2023-03-01T07:36:50;22.23;;;11.23;;
11665;SDS011;5889;51.350;6.708;2023-03-01T07:39:17;22.50;;;13.27;;
11665;SDS011;5889;51.350;6.708;2023-03-01T07:41:44;17.07;;;10.97;;
11665;SDS011;5889;51.350;6.708;2023-03-01T07:44:11;15.30;;;10.50;;
11665;SDS011;5889;51.350;6.708;2023-03-01T07:46:38;20.40;;;10.87;;
11665;SDS011;5889;51.350;6.708;2023-03-01T07:49:05;15.87;;;10.17;;
11665;SDS011;5889;51.350;6.708;2023-03-01T07:51:36;15.83;;;9.97;;
11665;SDS011;5889;51.350;6.708;2023-03-01T07:54:04;15.37;;;10.27;;
11665;SDS011;5889;51.350;6.708;2023-03-01T07:56:34;16.73;;;10.07;;
11665;SDS011;5889;51.350;6.708;2023-03-01T07:59:01;17.87;;;10.43;;
11665;SDS011;5889;51.350;6.708;2023-03-01T08:01:28;20.23;;;10.50;;
11665;SDS011;5889;51.350;6.708;2023-03-01T08:03:55;18.47;;;9.70;;
11665;SDS011;5889;51.350;6.708;2023-03-01T08:06:22;18.47;;;11.27;;
11665;SDS011;5889;51.350;6.708;2023-03-01T08:08:50;14.87;;;9.57;;
11665;SDS011;5889;51.350;6.708;2023-03-01T08:11:20;15.17;;;9.43;;
11665;SDS011;5889;51.350;6.708;2023-03-01T08:13:48;13.03;;;9.23;;
11665;SDS011;5889;51.350;6.708;2023-03-01T08:16:15;14.17;;;9.10;;
11665;SDS011;5889;51.350;6.708;2023-03-01T08:18:42;16.83;;;9.80;;
11665;SDS011;5889;51.350;6.708;2023-03-01T08:21:10;14.63;;;9.50;;
11665;SDS011;5889;51.350;6.708;2023-03-01T08:23:39;15.20;;;9.43;;
11665;SDS011;5889;51.350;6.708;2023-03-01T08:26:08;19.13;;;9.90;;
11665;SDS011;5889;51.350;6.708;2023-03-01T08:28:36;15.30;;;10.57;;
11665;SDS011;5889;51.350;6.708;2023-03-01T08:31:12;12.30;;;9.13;;
11665;SDS011;5889;51.350;6.708;2023-03-01T08:33:41;18.53;;;11.60;;
11665;SDS011;5889;51.350;6.708;2023-03-01T08:36:08;15.10;;;8.40;;
11665;SDS011;5889;51.350;6.708;2023-03-01T08:38:35;13.67;;;8.80;;
11665;SDS011;5889;51.350;6.708;2023-03-01T08:41:02;15.60;;;9.00;;
11665;SDS011;5889;51.350;6.708;2023-03-01T08:43:31;15.47;;;9.37;;
11665;SDS011;5889;51.350;6.708;2023-03-01T08:45:58;14.87;;;8.60;;
11665;SDS011;5889;51.350;6.708;2023-03-01T08:48:27;17.07;;;10.33;;
11665;SDS011;5889;51.350;6.708;2023-03-01T08:50:54;13.80;;;8.90;;
11665;SDS011;5889;51.350;6.708;2023-03-01T08:53:21;14.40;;;8.90;;
11665;SDS011;5889;51.350;6.708;2023-03-01T08:55:48;12.87;;;9.57;;
11665;SDS011;5889;51.350;6.708;2023-03-01T08:58:15;13.73;;;8.70;;
11665;SDS011;5889;51.350;6.708;2023-03-01T09:00:43;15.23;;;9.60;;
11665;SDS011;5889;51.350;6.708;2023-03-01T09:03:10;14.03;;;9.17;;
11665;SDS011;5889;51.350;6.708;2023-03-01T09:05:37;13.30;;;8.50;;
11665;SDS011;5889;51.350;6.708;2023-03-01T09:08:04;14.90;;;8.77;;
11665;SDS011;5889;51.350;6.708;2023-03-01T09:10:36;17.43;;;9.87;;
11665;SDS011;5889;51.350;6.708;2023-03-01T09:13:04;16.20;;;8.30;;
11665;SDS011;5889;51.350;6.708;2023-03-01T09:15:31;14.70;;;8.97;;
11665;SDS011;5889;51.350;6.708;2023-03-01T09:17:59;14.97;;;8.93;;
11665;SDS011;5889;51.350;6.708;2023-03-01T09:20:26;14.30;;;9.07;;
11665;SDS011;5889;51.350;6.708;2023-03-01T09:22:53;15.60;;;8.37;;
11665;SDS011;5889;51.350;6.708;2023-03-01T09:25:20;14.37;;;8.40;;
11665;SDS011;5889;51.350;6.708;2023-03-01T09:27:49;12.87;;;8.57;;
11665;SDS011;5889;51.350;6.708;2023-03-01T09:30:17;12.90;;;8.90;;
11665;SDS011;5889;51.350;6.708;2023-03-01T09:32:44;14.80;;;8.17;;
11665;SDS011;5889;51.350;6.708;2023-03-01T09:35:13;15.73;;;8.67;;
11665;SDS011;5889;51.350;6.708;2023-03-01T09:37:40;15.13;;;8.10;;
11665;SDS011;5889;51.350;6.708;2023-03-01T09:40:11;14.80;;;8.43;;
11665;SDS011;5889;51.350;6.708;2023-03-01T09:45:30;12.07;;;8.33;;
11665;SDS011;5889;51.350;6.708;2023-03-01T09:48:01;14.00;;;8.60;;
11665;SDS011;5889;51.350;6.708;2023-03-01T09:50:33;13.67;;;9.00;;
11665;SDS011;5889;51.350;6.708;2023-03-01T09:53:05;16.07;;;8.80;;
11665;SDS011;5889;51.350;6.708;2023-03-01T09:55:37;13.83;;;8.70;;
11665;SDS011;5889;51.350;6.708;2023-03-01T09:58:15;20.30;;;9.33;;
11665;SDS011;5889;51.350;6.708;2023-03-01T10:01:02;14.13;;;8.40;;
11665;SDS011;5889;51.350;6.708;2023-03-01T10:03:42;13.80;;;8.67;;
11665;SDS011;5889;51.350;6.708;2023-03-01T10:06:18;17.30;;;9.30;;
11665;SDS011;5889;51.350;6.708;2023-03-01T10:08:49;14.60;;;8.97;;
11665;SDS011;5889;51.350;6.708;2023-03-01T10:11:24;15.70;;;9.43;;
11665;SDS011;5889;51.350;6.708;2023-03-01T10:13:56;13.83;;;8.80;;
11665;SDS011;5889;51.350;6.708;2023-03-01T10:16:38;12.03;;;8.87;;
11665;SDS011;5889;51.350;6.708;2023-03-01T10:19:10;13.43;;;8.60;;
11665;SDS011;5889;51.350;6.708;2023-03-01T10:21:44;14.40;;;8.27;;
11665;SDS011;5889;51.350;6.708;2023-03-01T10:24:13;15.70;;;9.20;;
11665;SDS011;5889;51.350;6.708;2023-03-01T10:26:46;14.97;;;9.20;;
11665;SDS011;5889;51.350;6.708;2023-03-01T10:29:21;13.90;;;7.60;;
11665;SDS011;5889;51.350;6.708;2023-03-01T10:31:52;11.03;;;7.87;;
11665;SDS011;5889;51.350;6.708;2023-03-01T10:34:22;12.37;;;8.37;;
11665;SDS011;5889;51.350;6.708;2023-03-01T10:36:56;12.50;;;7.93;;
11665;SDS011;5889;51.350;6.708;2023-03-01T10:39:25;13.63;;;7.90;;
11665;SDS011;5889;51.350;6.708;2023-03-01T10:41:59;13.27;;;8.30;;
11665;SDS011;5889;51.350;6.708;2023-03-01T10:44:35;13.23;;;8.33;;
11665;SDS011;5889;51.350;6.708;2023-03-01T10:47:04;12.30;;;7.93;;
11665;SDS011;5889;51.350;6.708;2023-03-01T10:49:31;14.10;;;7.80;;
11665;SDS011;5889;51.350;6.708;2023-03-01T10:52:11;14.77;;;7.97;;
11665;SDS011;5889;51.350;6.708;2023-03-01T10:54:50;14.60;;;8.40;;
11665;SDS011;5889;51.350;6.708;2023-03-01T10:57:29;14.33;;;8.30;;
11665;SDS011;5889;51.350;6.708;2023-03-01T11:00:10;12.80;;;8.27;;
11665;SDS011;5889;51.350;6.708;2023-03-01T11:02:49;15.07;;;8.67;;
11665;SDS011;5889;51.350;6.708;2023-03-01T11:05:19;15.13;;;8.90;;
11665;SDS011;5889;51.350;6.708;2023-03-01T11:07:51;12.80;;;8.17;;
11665;SDS011;5889;51.350;6.708;2023-03-01T11:10:22;13.50;;;7.63;;
11665;SDS011;5889;51.350;6.708;2023-03-01T11:12:50;12.17;;;7.47;;
11665;SDS011;5889;51.350;6.708;2023-03-01T11:15:22;11.40;;;7.67;;
11665;SDS011;5889;51.350;6.708;2023-03-01T11:17:52;12.90;;;7.93;;
11665;SDS011;5889;51.350;6.708;2023-03-01T11:20:24;11.37;;;7.20;;
11665;SDS011;5889;51.350;6.708;2023-03-01T11:22:58;13.43;;;7.20;;
11665;SDS011;5889;51.350;6.708;2023-03-01T11:25:28;12.03;;;7.97;;
11665;SDS011;5889;51.350;6.708;2023-03-01T11:28:01;12.67;;;7.73;;
11665;SDS011;5889;51.350;6.708;2023-03-01T11:30:30;12.57;;;7.70;;
11665;SDS011;5889;51.350;6.708;2023-03-01T11:33:13;11.80;;;7.20;;
11665;SDS011;5889;51.350;6.708;2023-03-01T11:35:47;11.63;;;7.03;;
11665;SDS011;5889;51.350;6.708;2023-03-01T11:38:23;13.30;;;7.47;;
11665;SDS011;5889;51.350;6.708;2023-03-01T11:40:54;10.73;;;7.97;;
11665;SDS011;5889;51.350;6.708;2023-03-01T11:43:31;13.37;;;7.00;;
11665;SDS011;5889;51.350;6.708;2023-03-01T11:46:25;11.20;;;6.77;;
11665;SDS011;5889;51.350;6.708;2023-03-01T11:49:20;13.53;;;7.40;;
11665;SDS011;5889;51.350;6.708;2023-03-01T11:52:02;13.70;;;6.93;;
11665;SDS011;5889;51.350;6.708;2023-03-01T11:54:41;10.60;;;6.43;;
11665;SDS011;5889;51.350;6.708;2023-03-01T11:57:18;9.77;;;6.40;;
11665;SDS011;5889;51.350;6.708;2023-03-01T12:02:53;11.03;;;7.00;;
11665;SDS011;5889;51.350;6.708;2023-03-01T12:05:45;11.63;;;6.80;;
11665;SDS011;5889;51.350;6.708;2023-03-01T12:08:31;9.13;;;6.40;;
11665;SDS011;5889;51.350;6.708;2023-03-01T12:11:06;9.67;;;6.37;;
11665;SDS011;5889;51.350;6.708;2023-03-01T12:13:55;11.10;;;6.87;;
11665;SDS011;5889;51.350;6.708;2023-03-01T12:16:34;10.80;;;6.37;;
11665;SDS011;5889;51.350;6.708;2023-03-01T12:22:08;10.47;;;6.40;;
11665;SDS011;5889;51.350;6.708;2023-03-01T12:24:47;10.97;;;7.00;;
11665;SDS011;5889;51.350;6.708;2023-03-01T12:27:29;10.50;;;6.57;;
11665;SDS011;5889;51.350;6.708;2023-03-01T12:30:16;10.87;;;6.20;;
11665;SDS011;5889;51.350;6.708;2023-03-01T12:32:56;11.30;;;6.73;;
11665;SDS011;5889;51.350;6.708;2023-03-01T12:35:43;18.13;;;6.30;;
11665;SDS011;5889;51.350;6.708;2023-03-01T12:38:24;8.93;;;6.10;;
11665;SDS011;5889;51.350;6.708;2023-03-01T12:41:06;10.07;;;6.40;;
11665;SDS011;5889;51.350;6.708;2023-03-01T12:43:50;21.53;;;7.33;;
11665;SDS011;5889;51.350;6.708;2023-03-01T12:46:31;9.53;;;6.67;;
11665;SDS011;5889;51.350;6.708;2023-03-01T12:49:13;9.30;;;5.27;;
11665;SDS011;5889;51.350;6.708;2023-03-01T12:51:43;10.17;;;5.83;;
11665;SDS011;5889;51.350;6.708;2023-03-01T12:54:19;9.70;;;6.50;;
11665;SDS011;5889;51.350;6.708;2023-03-01T12:56:52;9.53;;;6.03;;
11665;SDS011;5889;51.350;6.708;2023-03-01T12:59:23;9.90;;;5.93;;
11665;SDS011;5889;51.350;6.708;2023-03-01T13:01:56;9.43;;;5.73;;
11665;SDS011;5889;51.350;6.708;2023-03-01T13:04:34;9.90;;;6.17;;
11665;SDS011;5889;51.350;6.708;2023-03-01T13:07:15;6.70;;;5.37;;
11665;SDS011;5889;51.350;6.708;2023-03-01T13:09:51;8.00;;;5.83;;
11665;SDS011;5889;51.350;6.708;2023-03-01T13:15:33;10.90;;;7.17;;
11665;SDS011;5889;51.350;6.708;2023-03-01T13:18:01;9.40;;;6.30;;
11665;SDS011;5889;51.350;6.708;2023-03-01T13:20:31;14.43;;;6.30;;
11665;SDS011;5889;51.350;6.708;2023-03-01T13:23:06;10.57;;;6.37;;
11665;SDS011;5889;51.350;6.708;2023-03-01T13:25:35;14.30;;;7.63;;
11665;SDS011;5889;51.350;6.708;2023-03-01T13:28:46;8.83;;;6.33;;
11665;SDS011;5889;51.350;6.708;2023-03-01T13:34:40;8.70;;;6.13;;
11665;SDS011;5889;51.350;6.708;2023-03-01T13:37:22;11.33;;;7.03;;
11665;SDS011;5889;51.350;6.708;2023-03-01T13:39:54;8.17;;;6.10;;
11665;SDS011;5889;51.350;6.708;2023-03-01T13:42:32;11.97;;;5.97;;
11665;SDS011;5889;51.350;6.708;2023-03-01T13:45:25;10.47;;;6.03;;
11665;SDS011;5889;51.350;6.708;2023-03-01T13:48:03;11.23;;;6.13;;
11665;SDS011;5889;51.350;6.708;2023-03-01T13:50:37;12.10;;;6.80;;
11665;SDS011;5889;51.350;6.708;2023-03-01T13:53:12;10.53;;;5.97;;
11665;SDS011;5889;51.350;6.708;2023-03-01T13:55:44;14.67;;;7.60;;
11665;SDS011;5889;51.350;6.708;2023-03-01T13:58:18;10.30;;;7.00;;
11665;SDS011;5889;51.350;6.708;2023-03-01T14:00:54;10.20;;;5.70;;
11665;SDS011;5889;51.350;6.708;2023-03-01T14:03:22;11.23;;;7.20;;
11665;SDS011;5889;51.350;6.708;2023-03-01T14:08:43;12.60;;;6.60;;
11665;SDS011;5889;51.350;6.708;2023-03-01T14:14:29;11.63;;;6.80;;
11665;SDS011;5889;51.350;6.708;2023-03-01T14:17:09;10.70;;;6.10;;
11665;SDS011;5889;51.350;6.708;2023-03-01T14:19:56;10.87;;;6.90;;
11665;SDS011;5889;51.350;6.708;2023-03-01T14:22:25;15.53;;;6.80;;
11665;SDS011;5889;51.350;6.708;2023-03-01T14:24:55;9.00;;;6.87;;
11665;SDS011;5889;51.350;6.708;2023-03-01T14:27:25;10.67;;;6.40;;
11665;SDS011;5889;51.350;6.708;2023-03-01T14:29:57;11.23;;;6.90;;
11665;SDS011;5889;51.350;6.708;2023-03-01T14:32:26;10.27;;;6.67;;
11665;SDS011;5889;51.350;6.708;2023-03-01T14:34:54;13.40;;;6.67;;
11665;SDS011;5889;51.350;6.708;2023-03-01T14:37:24;12.80;;;7.07;;
11665;SDS011;5889;51.350;6.708;2023-03-01T14:39:53;11.03;;;7.37;;
11665;SDS011;5889;51.350;6.708;2023-03-01T14:42:22;10.37;;;7.17;;
11665;SDS011;5889;51.350;6.708;2023-03-01T14:44:52;12.93;;;6.30;;
11665;SDS011;5889;51.350;6.708;2023-03-01T14:47:25;9.50;;;6.17;;
11665;SDS011;5889;51.350;6.708;2023-03-01T14:49:56;10.37;;;6.83;;
11665;SDS011;5889;51.350;6.708;2023-03-01T14:52:27;10.30;;;6.70;;
11665;SDS011;5889;51.350;6.708;2023-03-01T14:55:01;12.97;;;7.00;;
11665;SDS011;5889;51.350;6.708;2023-03-01T14:57:31;11.27;;;7.53;;
11665;SDS011;5889;51.350;6.708;2023-03-01T15:00:00;10.40;;;6.47;;
11665;SDS011;5889;51.350;6.708;2023-03-01T15:02:32;11.53;;;6.60;;
11665;SDS011;5889;51.350;6.708;2023-03-01T15:05:01;13.00;;;7.77;;
11665;SDS011;5889;51.350;6.708;2023-03-01T15:07:31;10.70;;;7.20;;
11665;SDS011;5889;51.350;6.708;2023-03-01T15:10:00;12.17;;;7.17;;
11665;SDS011;5889;51.350;6.708;2023-03-01T15:12:35;12.87;;;7.27;;
11665;SDS011;5889;51.350;6.708;2023-03-01T15:18:01;19.33;;;7.80;;
11665;SDS011;5889;51.350;6.708;2023-03-01T15:20:31;12.43;;;7.07;;
11665;SDS011;5889;51.350;6.708;2023-03-01T15:23:01;12.83;;;8.00;;
11665;SDS011;5889;51.350;6.708;2023-03-01T15:25:29;11.27;;;7.53;;
11665;SDS011;5889;51.350;6.708;2023-03-01T15:27:58;15.53;;;7.20;;
11665;SDS011;5889;51.350;6.708;2023-03-01T15:30:29;16.40;;;7.37;;
11665;SDS011;5889;51.350;6.708;2023-03-01T15:35:54;13.47;;;7.60;;